createdAt,value
2018-01-13T00:05:42.739Z,0
2018-01-13T00:15:29.743Z,0
2018-01-13T00:25:29.792Z,0
2018-01-13T00:35:29.733Z,0
2018-01-13T00:45:29.879Z,0
2018-01-13T00:55:29.807Z,0
2018-01-13T01:05:29.846Z,0
2018-01-13T01:15:29.821Z,0
2018-01-13T01:25:29.853Z,0
2018-01-13T01:35:29.865Z,0
2018-01-13T01:45:29.926Z,0
2018-01-13T01:55:29.891Z,0
2018-01-13T02:05:29.812Z,0
2018-01-13T02:15:29.921Z,0
2018-01-13T02:25:29.853Z,0
2018-01-13T02:35:29.920Z,0
2018-01-13T02:45:29.908Z,0
2018-01-13T02:55:29.946Z,0
2018-01-13T03:05:29.884Z,0
2018-01-13T03:15:29.868Z,0
2018-01-13T03:25:29.875Z,0
2018-01-13T03:35:29.955Z,0
2018-01-13T03:45:29.958Z,0
2018-01-13T03:55:29.981Z,0
2018-01-13T04:05:29.917Z,0
2018-01-13T04:15:29.875Z,0
2018-01-13T04:25:30.017Z,0
2018-01-13T04:35:29.942Z,0
2018-01-13T04:45:30.013Z,0
2018-01-13T04:55:29.958Z,0
2018-01-13T05:05:30.039Z,0
2018-01-13T05:15:29.990Z,0
2018-01-13T05:25:29.961Z,0
2018-01-13T05:35:30.010Z,0
2018-01-13T05:45:30.089Z,0
2018-01-13T05:55:30.067Z,0
2018-01-13T06:05:36.374Z,0
2018-01-13T06:15:29.999Z,0
2018-01-13T06:25:30.067Z,0
2018-01-13T06:35:30.026Z,0
2018-01-13T06:45:30.077Z,0
2018-01-13T06:55:30.070Z,0
2018-01-13T07:05:30.140Z,0
2018-01-13T07:15:30.067Z,0
2018-01-13T07:25:30.148Z,0
2018-01-13T07:35:30.073Z,0
2018-01-13T07:45:30.147Z,5
2018-01-13T07:55:30.105Z,10
2018-01-13T08:05:30.070Z,15
2018-01-13T08:15:30.147Z,25
2018-01-13T08:25:30.236Z,30
2018-01-13T08:35:30.150Z,40
2018-01-13T08:45:30.131Z,45
2018-01-13T08:55:30.200Z,45
2018-01-13T09:05:30.431Z,50
2018-01-13T09:15:30.128Z,50
2018-01-13T09:25:30.198Z,50
2018-01-13T09:35:30.160Z,50
2018-01-13T09:45:30.184Z,60
2018-01-13T09:55:30.207Z,65
2018-01-13T10:05:30.319Z,80
2018-01-13T10:15:30.206Z,75
2018-01-13T10:25:30.309Z,75
2018-01-13T10:35:30.274Z,80
2018-01-13T10:45:30.293Z,80
2018-01-13T10:55:30.261Z,85
2018-01-13T11:05:30.362Z,85
2018-01-13T11:15:30.315Z,85
2018-01-13T11:25:30.371Z,75
2018-01-13T11:35:30.359Z,55
2018-01-13T11:45:30.357Z,55
2018-01-13T11:55:30.360Z,50
2018-01-13T12:05:30.315Z,50
2018-01-13T12:15:30.337Z,50
2018-01-13T12:25:30.689Z,35
2018-01-13T12:35:30.509Z,40
2018-01-13T12:45:30.450Z,45
2018-01-13T12:55:30.746Z,40
2018-01-13T13:05:30.415Z,40
2018-01-13T13:15:30.413Z,40
2018-01-13T13:25:30.596Z,35
2018-01-13T13:35:30.458Z,30
2018-01-13T13:45:30.399Z,30
2018-01-13T13:55:30.438Z,35
2018-01-13T14:05:30.509Z,30
2018-01-13T14:15:30.470Z,25
2018-01-13T14:25:30.440Z,25
2018-01-13T14:35:30.477Z,20
2018-01-13T14:45:30.395Z,20
2018-01-13T14:55:30.504Z,20
2018-01-13T15:05:30.489Z,15
2018-01-13T15:15:33.777Z,10
2018-01-13T15:25:30.481Z,5
2018-01-13T15:35:30.517Z,5
2018-01-13T15:45:30.511Z,0
2018-01-13T15:55:30.548Z,0
2018-01-13T16:05:30.535Z,0
2018-01-13T16:15:30.584Z,0
2018-01-13T16:25:30.546Z,0
2018-01-13T16:35:30.509Z,0
2018-01-13T16:45:30.637Z,0
2018-01-13T16:55:30.586Z,0
2018-01-13T17:05:30.599Z,0
2018-01-13T17:15:30.572Z,0
2018-01-13T17:25:30.588Z,0
2018-01-13T17:35:30.598Z,0
2018-01-13T17:45:30.631Z,0
2018-01-13T17:55:30.612Z,0
2018-01-13T18:05:30.722Z,0
2018-01-13T18:15:30.650Z,0
2018-01-13T18:25:30.679Z,0
2018-01-13T18:35:30.691Z,0
2018-01-13T18:45:30.644Z,0
2018-01-13T18:55:30.793Z,0
2018-01-13T19:05:30.772Z,0
2018-01-13T19:15:30.705Z,0
2018-01-13T19:25:30.841Z,0
2018-01-13T19:35:30.752Z,0
2018-01-13T19:45:30.705Z,0
2018-01-13T19:55:30.782Z,0
2018-01-13T20:05:30.715Z,0
2018-01-13T20:15:30.804Z,0
2018-01-13T20:25:30.732Z,0
2018-01-13T20:35:30.788Z,0
2018-01-13T20:45:30.778Z,0
2018-01-13T20:55:30.743Z,0
2018-01-13T21:05:30.782Z,0
2018-01-13T21:15:30.765Z,0
2018-01-13T21:25:30.923Z,0
2018-01-13T21:35:30.839Z,0
2018-01-13T21:45:30.833Z,0
2018-01-13T21:55:30.766Z,0
2018-01-13T22:05:30.878Z,0
2018-01-13T22:15:30.829Z,0
2018-01-13T22:25:30.753Z,0
2018-01-13T22:35:30.849Z,0
2018-01-13T22:45:30.963Z,0
2018-01-13T22:55:30.855Z,0
2018-01-13T23:05:30.860Z,0
2018-01-13T23:15:30.939Z,0
2018-01-13T23:25:30.881Z,0
2018-01-13T23:35:30.884Z,0
2018-01-13T23:45:30.867Z,0
2018-01-13T23:55:30.981Z,0
